Pacific Pathfinder — PATH — position and weather

sailwx.info

Track history (hours):
 
Tides and Currents Weather Stations Pressure Air Temp Water Temp Dewpoint Dewpoint Depression Visibility Wind Speed Wind Dir Waves Ship Positions

Pacific Pathfinder

Last reported at 2018-May-23 04:43 UTC. Time now 2018-May-24 06:18 UTC.
Position N 54°18' W 130°21'.

Length 22 m; draft 1.3 m.

Type: Pilot. MMSI: 316003484.

Date/timePositionNaut miles runAvg speedWind from/ knotsBaromVisibWave heightAir tempDewpointWater temp
2018-May-23 04:43N 54°18' W 130°21'0 0.0
2018-May-22 19:50N 54°18' W 130°21'2 2.0
2018-May-22 18:56N 54°19' W 130°19'612.5
2018-May-22 18:26N 54°19' W 130°30'1221.2
2018-May-22 17:52N 54°18' W 130°50'412.4
2018-May-22 17:30N 54°16' W 130°44'612.8
2018-May-22 17:00N 54°14' W 130°33'611.9
2018-May-22 16:30N 54°13' W 130°23'4 7.7
2018-May-22 16:00N 54°17' W 130°22'1 0.1
2018-May-22 08:37N 54°18' W 130°21'110.5
2018-May-22 08:30N 54°18' W 130°23'714.2
2018-May-22 08:00N 54°18' W 130°35'714.1
2018-May-22 07:30N 54°17' W 130°47'815.4
2018-May-22 07:00N 54°14' W 130°35'713.0
2018-May-22 06:31N 54°14' W 130°24'5 2.4
2018-May-22 04:35N 54°18' W 130°22'115.8
2018-May-22 04:30N 54°19' W 130°24'815.8
2018-May-22 04:00N 54°18' W 130°37'1020.2
2018-May-22 03:29N 54°19' W 130°55'815.1
2018-May-22 02:57N 54°19' W 130°41'613.0
2018-May-22 02:30N 54°19' W 130°31'1016.9
2018-May-22 01:53N 54°19' W 130°48'2 4.8
2018-May-22 01:30N 54°17' W 130°47'1121.6
2018-May-22 01:00N 54°14' W 130°29'6 1.8
2018-May-21 21:58N 54°18' W 130°21'511.3
2018-May-21 21:30N 54°19' W 130°30'1120.3
2018-May-21 20:58N 54°17' W 130°48'511.1
2018-May-21 20:30N 54°14' W 130°40'612.2
2018-May-21 20:00N 54°13' W 130°30'510.4
2018-May-21 19:30N 54°13' W 130°21'5 9.5
2018-May-21 19:01N 54°17' W 130°22'1 0.1
2018-May-21 13:54N 54°18' W 130°21'512.1
2018-May-21 13:28N 54°19' W 130°30'920.0
2018-May-21 13:00N 54°18' W 130°46'2 3.3
2018-May-21 12:30N 54°17' W 130°44'1121.7
2018-May-21 12:01N 54°14' W 130°26'  
2018-May-13 07:52N 54°18' W 130°21'0 0.0
2018-May-13 07:15N 54°18' W 130°21'  
Track history (hours):
 
Tides and Currents Weather Stations Pressure Air Temp Water Temp Dewpoint Dewpoint Depression Visibility Wind Speed Wind Dir Waves Ship Positions

Pacific Pathfinder

Last reported at 2018-May-23 04:43 UTC. Time now 2018-May-24 06:18 UTC.
Position N 54°18' W 130°21'.

Length 22 m; draft 1.3 m.

Type: Pilot. MMSI: 316003484.

Date/timePositionNaut miles runAvg speedWind from/ knotsBaromVisibWave heightAir tempDewpointWater temp
2018-May-23 04:43N 54°18' W 130°21'0 0.0
2018-May-22 19:50N 54°18' W 130°21'2 2.0
2018-May-22 18:56N 54°19' W 130°19'612.5
2018-May-22 18:26N 54°19' W 130°30'1221.2
2018-May-22 17:52N 54°18' W 130°50'412.4
2018-May-22 17:30N 54°16' W 130°44'612.8
2018-May-22 17:00N 54°14' W 130°33'611.9
2018-May-22 16:30N 54°13' W 130°23'4 7.7
2018-May-22 16:00N 54°17' W 130°22'1 0.1
2018-May-22 08:37N 54°18' W 130°21'110.5
2018-May-22 08:30N 54°18' W 130°23'714.2
2018-May-22 08:00N 54°18' W 130°35'714.1
2018-May-22 07:30N 54°17' W 130°47'815.4
2018-May-22 07:00N 54°14' W 130°35'713.0
2018-May-22 06:31N 54°14' W 130°24'5 2.4
2018-May-22 04:35N 54°18' W 130°22'115.8
2018-May-22 04:30N 54°19' W 130°24'815.8
2018-May-22 04:00N 54°18' W 130°37'1020.2
2018-May-22 03:29N 54°19' W 130°55'815.1
2018-May-22 02:57N 54°19' W 130°41'613.0
2018-May-22 02:30N 54°19' W 130°31'1016.9
2018-May-22 01:53N 54°19' W 130°48'2 4.8
2018-May-22 01:30N 54°17' W 130°47'1121.6
2018-May-22 01:00N 54°14' W 130°29'6 1.8
2018-May-21 21:58N 54°18' W 130°21'511.3
2018-May-21 21:30N 54°19' W 130°30'1120.3
2018-May-21 20:58N 54°17' W 130°48'511.1
2018-May-21 20:30N 54°14' W 130°40'612.2
2018-May-21 20:00N 54°13' W 130°30'510.4
2018-May-21 19:30N 54°13' W 130°21'5 9.5
2018-May-21 19:01N 54°17' W 130°22'1 0.1
2018-May-21 13:54N 54°18' W 130°21'512.1
2018-May-21 13:28N 54°19' W 130°30'920.0
2018-May-21 13:00N 54°18' W 130°46'2 3.3
2018-May-21 12:30N 54°17' W 130°44'1121.7
2018-May-21 12:01N 54°14' W 130°26'  
2018-May-13 07:52N 54°18' W 130°21'0 0.0
2018-May-13 07:15N 54°18' W 130°21'  

Dump ship's entire track history